sensor_id;sensor_type;location;lat;lon;timestamp;pressure;altitude;pressure_sealevel;temperature;humidity
2000;BME280;1001;48.87406500;9.59633600;2023-01-29T00:01:10;95996.00;;;-0.98;100.00
2000;BME280;1001;48.87406500;9.59633600;2023-01-29T00:03:36;96004.38;;;-1.06;100.00
2000;BME280;1001;48.87406500;9.59633600;2023-01-29T00:06:04;95992.34;;;-1.05;100.00
2000;BME280;1001;48.87406500;9.59633600;2023-01-29T00:08:32;95992.34;;;-0.96;100.00
2000;BME280;1001;48.87406500;9.59633600;2023-01-29T00:10:59;96000.28;;;-0.80;100.00
2000;BME280;1001;48.87406500;9.59633600;2023-01-29T00:13:26;96004.19;;;-0.66;99.89
2000;BME280;1001;48.87406500;9.59633600;2023-01-29T00:15:53;96013.53;;;-0.94;99.77
2000;BME280;1001;48.87406500;9.59633600;2023-01-29T00:18:22;96017.88;;;-1.04;100.00
2000;BME280;1001;48.87406500;9.59633600;2023-01-29T00:20:48;96010.16;;;-0.94;100.00
2000;BME280;1001;48.87406500;9.59633600;2023-01-29T00:23:15;95998.16;;;-0.94;100.00
2000;BME280;1001;48.87406500;9.59633600;2023-01-29T00:25:42;95997.63;;;-0.97;100.00
2000;BME280;1001;48.87406500;9.59633600;2023-01-29T00:28:09;95997.47;;;-1.15;100.00
2000;BME280;1001;48.87406500;9.59633600;2023-01-29T00:30:36;96000.44;;;-1.19;100.00
2000;BME280;1001;48.87406500;9.59633600;2023-01-29T00:33:03;96000.72;;;-1.22;100.00
2000;BME280;1001;48.87406500;9.59633600;2023-01-29T00:35:31;95996.25;;;-1.20;100.00
2000;BME280;1001;48.87406500;9.59633600;2023-01-29T00:37:58;95999.91;;;-1.13;100.00
2000;BME280;1001;48.87406500;9.59633600;2023-01-29T00:40:25;96000.47;;;-1.10;100.00
2000;BME280;1001;48.87406500;9.59633600;2023-01-29T00:42:52;95998.72;;;-1.19;100.00
2000;BME280;1001;48.87406500;9.59633600;2023-01-29T00:45:36;95993.16;;;-1.14;100.00
2000;BME280;1001;48.87406500;9.59633600;2023-01-29T00:48:03;95992.75;;;-1.00;100.00
2000;BME280;1001;48.87406500;9.59633600;2023-01-29T00:50:31;95995.47;;;-1.11;100.00
2000;BME280;1001;48.87406500;9.59633600;2023-01-29T00:52:58;96002.19;;;-0.91;100.00
2000;BME280;1001;48.87406500;9.59633600;2023-01-29T00:55:24;95995.97;;;-0.89;100.00
2000;BME280;1001;48.87406500;9.59633600;2023-01-29T00:57:51;95994.91;;;-0.96;99.90
2000;BME280;1001;48.87406500;9.59633600;2023-01-29T01:00:18;96001.78;;;-1.06;100.00
2000;BME280;1001;48.87406500;9.59633600;2023-01-29T01:02:45;96003.84;;;-1.09;100.00
2000;BME280;1001;48.87406500;9.59633600;2023-01-29T01:05:30;95993.16;;;-1.24;100.00
2000;BME280;1001;48.87406500;9.59633600;2023-01-29T01:07:57;95992.34;;;-1.24;100.00
2000;BME280;1001;48.87406500;9.59633600;2023-01-29T01:10:26;95995.47;;;-1.11;100.00
2000;BME280;1001;48.87406500;9.59633600;2023-01-29T01:12:55;95998.03;;;-1.02;100.00
2000;BME280;1001;48.87406500;9.59633600;2023-01-29T01:15:25;95987.88;;;-1.03;100.00
2000;BME280;1001;48.87406500;9.59633600;2023-01-29T01:17:52;95988.03;;;-0.95;100.00
2000;BME280;1001;48.87406500;9.59633600;2023-01-29T01:20:19;95988.28;;;-0.79;100.00
2000;BME280;1001;48.87406500;9.59633600;2023-01-29T01:22:47;95987.28;;;-0.69;100.00
2000;BME280;1001;48.87406500;9.59633600;2023-01-29T01:25:14;95984.22;;;-0.72;100.00
2000;BME280;1001;48.87406500;9.59633600;2023-01-29T01:27:41;95977.34;;;-0.81;100.00
2000;BME280;1001;48.87406500;9.59633600;2023-01-29T01:30:10;95980.06;;;-1.11;100.00
2000;BME280;1001;48.87406500;9.59633600;2023-01-29T01:32:37;95979.66;;;-1.16;100.00
2000;BME280;1001;48.87406500;9.59633600;2023-01-29T01:35:05;95976.69;;;-1.12;100.00
2000;BME280;1001;48.87406500;9.59633600;2023-01-29T01:37:32;95987.88;;;-0.94;100.00
2000;BME280;1001;48.87406500;9.59633600;2023-01-29T01:40:03;95985.56;;;-0.87;100.00
2000;BME280;1001;48.87406500;9.59633600;2023-01-29T01:42:30;95988.53;;;-0.92;100.00
2000;BME280;1001;48.87406500;9.59633600;2023-01-29T01:44:59;95988.13;;;-0.87;100.00
2000;BME280;1001;48.87406500;9.59633600;2023-01-29T01:47:33;95984.91;;;-0.89;100.00
2000;BME280;1001;48.87406500;9.59633600;2023-01-29T01:50:05;95978.16;;;-0.90;100.00
2000;BME280;1001;48.87406500;9.59633600;2023-01-29T01:52:35;95981.66;;;-0.91;100.00
2000;BME280;1001;48.87406500;9.59633600;2023-01-29T01:55:05;95973.44;;;-0.95;100.00
2000;BME280;1001;48.87406500;9.59633600;2023-01-29T01:57:32;95971.66;;;-1.04;100.00
2000;BME280;1001;48.87406500;9.59633600;2023-01-29T02:00:03;95983.56;;;-1.03;100.00
2000;BME280;1001;48.87406500;9.59633600;2023-01-29T02:02:34;95976.94;;;-1.05;100.00
2000;BME280;1001;48.87406500;9.59633600;2023-01-29T02:05:18;95975.19;;;-0.86;100.00
2000;BME280;1001;48.87406500;9.59633600;2023-01-29T02:08:02;95980.59;;;-1.08;100.00
2000;BME280;1001;48.87406500;9.59633600;2023-01-29T02:10:48;95979.13;;;-1.20;100.00
2000;BME280;1001;48.87406500;9.59633600;2023-01-29T02:13:15;95987.22;;;-1.05;100.00
2000;BME280;1001;48.87406500;9.59633600;2023-01-29T02:15:43;95984.50;;;-0.85;100.00
2000;BME280;1001;48.87406500;9.59633600;2023-01-29T02:18:11;95987.31;;;-0.78;100.00
2000;BME280;1001;48.87406500;9.59633600;2023-01-29T02:20:41;95988.56;;;-1.01;100.00
2000;BME280;1001;48.87406500;9.59633600;2023-01-29T02:23:33;95986.13;;;-1.12;100.00
2000;BME280;1001;48.87406500;9.59633600;2023-01-29T02:26:29;95989.22;;;-1.09;100.00
2000;BME280;1001;48.87406500;9.59633600;2023-01-29T02:29:06;95989.38;;;-1.20;100.00
2000;BME280;1001;48.87406500;9.59633600;2023-01-29T02:31:53;95990.19;;;-1.10;100.00
2000;BME280;1001;48.87406500;9.59633600;2023-01-29T02:34:31;95994.09;;;-1.06;100.00
2000;BME280;1001;48.87406500;9.59633600;2023-01-29T02:37:22;95986.28;;;-0.95;100.00
2000;BME280;1001;48.87406500;9.59633600;2023-01-29T02:39:57;95975.72;;;-1.01;100.00
2000;BME280;1001;48.87406500;9.59633600;2023-01-29T02:42:35;95983.56;;;-0.93;100.00
2000;BME280;1001;48.87406500;9.59633600;2023-01-29T02:45:09;95991.66;;;-0.88;100.00
2000;BME280;1001;48.87406500;9.59633600;2023-01-29T02:47:41;95994.66;;;-0.93;100.00
2000;BME280;1001;48.87406500;9.59633600;2023-01-29T02:50:13;95985.31;;;-0.94;100.00
2000;BME280;1001;48.87406500;9.59633600;2023-01-29T02:52:45;95987.59;;;-0.81;100.00
2000;BME280;1001;48.87406500;9.59633600;2023-01-29T02:55:22;95978.69;;;-1.06;100.00
2000;BME280;1001;48.87406500;9.59633600;2023-01-29T02:57:54;95981.41;;;-0.98;100.00
2000;BME280;1001;48.87406500;9.59633600;2023-01-29T03:00:27;95975.72;;;-1.20;100.00
2000;BME280;1001;48.87406500;9.59633600;2023-01-29T03:02:58;95976.69;;;-1.31;100.00
2000;BME280;1001;48.87406500;9.59633600;2023-01-29T03:05:30;95975.47;;;-1.27;100.00
2000;BME280;1001;48.87406500;9.59633600;2023-01-29T03:08:01;95981.00;;;-1.12;100.00
2000;BME280;1001;48.87406500;9.59633600;2023-01-29T03:10:33;95974.38;;;-0.96;100.00
2000;BME280;1001;48.87406500;9.59633600;2023-01-29T03:13:06;95972.06;;;-0.99;100.00
2000;BME280;1001;48.87406500;9.59633600;2023-01-29T03:15:39;95977.44;;;-0.83;100.00
2000;BME280;1001;48.87406500;9.59633600;2023-01-29T03:18:10;95974.38;;;-0.86;100.00
2000;BME280;1001;48.87406500;9.59633600;2023-01-29T03:20:40;95978.69;;;-0.96;100.00
2000;BME280;1001;48.87406500;9.59633600;2023-01-29T03:23:22;95981.00;;;-1.03;100.00
2000;BME280;1001;48.87406500;9.59633600;2023-01-29T03:25:53;95970.75;;;-1.12;100.00
2000;BME280;1001;48.87406500;9.59633600;2023-01-29T03:28:41;95971.16;;;-1.17;96.68
2000;BME280;1001;48.87406500;9.59633600;2023-01-29T03:31:29;95972.91;;;-1.08;98.15
2000;BME280;1001;48.87406500;9.59633600;2023-01-29T03:34:16;95976.81;;;-1.13;98.29
2000;BME280;1001;48.87406500;9.59633600;2023-01-29T03:36:52;95974.53;;;-1.07;98.98
2000;BME280;1001;48.87406500;9.59633600;2023-01-29T03:39:21;95967.63;;;-1.06;99.24
2000;BME280;1001;48.87406500;9.59633600;2023-01-29T03:41:53;95976.53;;;-1.01;100.00
2000;BME280;1001;48.87406500;9.59633600;2023-01-29T03:44:28;95973.44;;;-1.04;100.00
2000;BME280;1001;48.87406500;9.59633600;2023-01-29T03:47:02;95979.91;;;-0.91;100.00
2000;BME280;1001;48.87406500;9.59633600;2023-01-29T03:49:41;95975.59;;;-0.90;99.51
2000;BME280;1001;48.87406500;9.59633600;2023-01-29T03:52:17;95974.53;;;-1.07;99.45
2000;BME280;1001;48.87406500;9.59633600;2023-01-29T03:54:53;95973.56;;;-1.06;100.00
2000;BME280;1001;48.87406500;9.59633600;2023-01-29T03:57:28;95978.97;;;-1.09;100.00
2000;BME280;1001;48.87406500;9.59633600;2023-01-29T04:00:03;95983.84;;;-1.06;100.00
2000;BME280;1001;48.87406500;9.59633600;2023-01-29T04:02:38;95985.19;;;-1.02;100.00
2000;BME280;1001;48.87406500;9.59633600;2023-01-29T04:05:10;95986.00;;;-1.11;100.00
2000;BME280;1001;48.87406500;9.59633600;2023-01-29T04:07:40;95976.53;;;-1.29;100.00
2000;BME280;1001;48.87406500;9.59633600;2023-01-29T04:10:11;95979.66;;;-1.16;100.00
2000;BME280;1001;48.87406500;9.59633600;2023-01-29T04:12:43;95983.97;;;-1.17;100.00
2000;BME280;1001;48.87406500;9.59633600;2023-01-29T04:15:13;95991.78;;;-1.09;100.00
2000;BME280;1001;48.87406500;9.59633600;2023-01-29T04:17:46;95986.00;;;-1.20;100.00
2000;BME280;1001;48.87406500;9.59633600;2023-01-29T04:20:15;95980.34;;;-1.14;100.00
2000;BME280;1001;48.87406500;9.59633600;2023-01-29T04:22:44;95994.25;;;-0.98;100.00
2000;BME280;1001;48.87406500;9.59633600;2023-01-29T04:25:13;95992.34;;;-0.86;100.00
2000;BME280;1001;48.87406500;9.59633600;2023-01-29T04:27:44;95990.34;;;-1.02;100.00
2000;BME280;1001;48.87406500;9.59633600;2023-01-29T04:30:22;95993.69;;;-1.01;100.00
2000;BME280;1001;48.87406500;9.59633600;2023-01-29T04:33:02;95989.38;;;-1.10;97.19
2000;BME280;1001;48.87406500;9.59633600;2023-01-29T04:35:43;95987.63;;;-1.00;94.79
2000;BME280;1001;48.87406500;9.59633600;2023-01-29T04:38:24;95983.72;;;-1.04;94.91
2000;BME280;1001;48.87406500;9.59633600;2023-01-29T04:41:00;95983.97;;;-0.98;95.40
2000;BME280;1001;48.87406500;9.59633600;2023-01-29T04:43:34;95986.53;;;-0.98;95.10
2000;BME280;1001;48.87406500;9.59633600;2023-01-29T04:46:11;95977.19;;;-0.89;96.52
2000;BME280;1001;48.87406500;9.59633600;2023-01-29T04:48:52;95975.31;;;-0.87;96.47
2000;BME280;1001;48.87406500;9.59633600;2023-01-29T04:51:27;95971.81;;;-0.96;96.74
2000;BME280;1001;48.87406500;9.59633600;2023-01-29T04:54:01;95974.38;;;-0.96;97.31
2000;BME280;1001;48.87406500;9.59633600;2023-01-29T04:56:37;95974.53;;;-0.97;97.85
2000;BME280;1001;48.87406500;9.59633600;2023-01-29T04:59:06;95979.50;;;-0.96;95.33
2000;BME280;1001;48.87406500;9.59633600;2023-01-29T05:01:35;95987.06;;;-0.85;95.52
2000;BME280;1001;48.87406500;9.59633600;2023-01-29T05:04:08;95990.84;;;-0.98;93.86
2000;BME280;1001;48.87406500;9.59633600;2023-01-29T05:06:36;95981.41;;;-0.98;93.22
2000;BME280;1001;48.87406500;9.59633600;2023-01-29T05:09:05;95990.03;;;-0.99;94.42
2000;BME280;1001;48.87406500;9.59633600;2023-01-29T05:11:34;95993.44;;;-0.98;94.00
2000;BME280;1001;48.87406500;9.59633600;2023-01-29T05:14:03;95989.22;;;-0.90;93.73
2000;BME280;1001;48.87406500;9.59633600;2023-01-29T05:16:36;95989.09;;;-0.98;93.92
2000;BME280;1001;48.87406500;9.59633600;2023-01-29T05:19:08;95990.34;;;-1.02;92.53
2000;BME280;1001;48.87406500;9.59633600;2023-01-29T05:21:35;95988.69;;;-1.03;94.12
2000;BME280;1001;48.87406500;9.59633600;2023-01-29T05:24:07;95980.84;;;-1.01;93.62
2000;BME280;1001;48.87406500;9.59633600;2023-01-29T05:26:34;95985.88;;;-1.00;94.49
2000;BME280;1001;48.87406500;9.59633600;2023-01-29T05:29:19;95989.94;;;-0.97;94.32
2000;BME280;1001;48.87406500;9.59633600;2023-01-29T05:31:46;95992.91;;;-1.02;94.70
2000;BME280;1001;48.87406500;9.59633600;2023-01-29T05:34:14;95991.94;;;-1.01;94.26
2000;BME280;1001;48.87406500;9.59633600;2023-01-29T05:36:40;95985.72;;;-0.98;92.97
2000;BME280;1001;48.87406500;9.59633600;2023-01-29T05:39:07;95988.44;;;-1.09;93.43
2000;BME280;1001;48.87406500;9.59633600;2023-01-29T05:41:33;95977.78;;;-1.05;92.49
2000;BME280;1001;48.87406500;9.59633600;2023-01-29T05:44:00;95970.19;;;-1.06;91.89
2000;BME280;1001;48.87406500;9.59633600;2023-01-29T05:46:27;95976.94;;;-1.05;92.55
2000;BME280;1001;48.87406500;9.59633600;2023-01-29T05:48:53;95982.91;;;-1.05;93.04
2000;BME280;1001;48.87406500;9.59633600;2023-01-29T05:51:21;95972.75;;;-1.06;92.17
2000;BME280;1001;48.87406500;9.59633600;2023-01-29T05:53:48;95962.38;;;-1.05;93.03
2000;BME280;1001;48.87406500;9.59633600;2023-01-29T05:56:14;95951.28;;;-1.05;93.49
2000;BME280;1001;48.87406500;9.59633600;2023-01-29T05:58:41;95939.69;;;-1.09;93.13
2000;BME280;1001;48.87406500;9.59633600;2023-01-29T06:01:09;95934.66;;;-1.01;92.58
2000;BME280;1001;48.87406500;9.59633600;2023-01-29T06:03:36;95936.97;;;-1.08;91.97
2000;BME280;1001;48.87406500;9.59633600;2023-01-29T06:06:03;95938.59;;;-1.07;92.71
2000;BME280;1001;48.87406500;9.59633600;2023-01-29T06:08:31;95939.69;;;-1.09;93.76
2000;BME280;1001;48.87406500;9.59633600;2023-01-29T06:10:57;95938.31;;;-1.04;93.95
2000;BME280;1001;48.87406500;9.59633600;2023-01-29T06:13:24;95936.97;;;-1.17;93.91
2000;BME280;1001;48.87406500;9.59633600;2023-01-29T06:15:51;95945.22;;;-1.14;93.88
2000;BME280;1001;48.87406500;9.59633600;2023-01-29T06:18:18;95946.81;;;-1.03;94.08
2000;BME280;1001;48.87406500;9.59633600;2023-01-29T06:20:44;95956.97;;;-1.02;94.33
2000;BME280;1001;48.87406500;9.59633600;2023-01-29T06:23:11;95956.56;;;-1.07;95.21
2000;BME280;1001;48.87406500;9.59633600;2023-01-29T06:25:39;95958.44;;;-0.99;95.97
2000;BME280;1001;48.87406500;9.59633600;2023-01-29T06:28:05;95959.50;;;-0.92;95.72
2000;BME280;1001;48.87406500;9.59633600;2023-01-29T06:30:32;95955.59;;;-0.96;95.10
2000;BME280;1001;48.87406500;9.59633600;2023-01-29T06:32:59;95957.34;;;-0.97;96.18
2000;BME280;1001;48.87406500;9.59633600;2023-01-29T06:35:27;95960.97;;;-0.90;96.13
2000;BME280;1001;48.87406500;9.59633600;2023-01-29T06:37:55;95955.16;;;-0.82;96.11
2000;BME280;1001;48.87406500;9.59633600;2023-01-29T06:40:21;95958.16;;;-0.87;95.62
2000;BME280;1001;48.87406500;9.59633600;2023-01-29T06:42:49;95963.53;;;-0.90;95.96
2000;BME280;1001;48.87406500;9.59633600;2023-01-29T06:45:16;95974.13;;;-0.93;96.43
2000;BME280;1001;48.87406500;9.59633600;2023-01-29T06:47:42;95973.69;;;-0.88;96.67
2000;BME280;1001;48.87406500;9.59633600;2023-01-29T06:50:10;95961.69;;;-0.97;94.80
2000;BME280;1001;48.87406500;9.59633600;2023-01-29T06:52:37;95970.31;;;-0.98;94.29
2000;BME280;1001;48.87406500;9.59633600;2023-01-29T06:55:04;95968.16;;;-0.93;94.46
2000;BME280;1001;48.87406500;9.59633600;2023-01-29T06:57:31;95973.72;;;-0.98;94.81
2000;BME280;1001;48.87406500;9.59633600;2023-01-29T06:59:59;95970.47;;;-1.00;94.29
2000;BME280;1001;48.87406500;9.59633600;2023-01-29T07:02:25;95986.66;;;-0.99;94.86
2000;BME280;1001;48.87406500;9.59633600;2023-01-29T07:04:52;95988.53;;;-0.92;95.08
2000;BME280;1001;48.87406500;9.59633600;2023-01-29T07:07:18;95992.59;;;-0.89;94.66
2000;BME280;1001;48.87406500;9.59633600;2023-01-29T07:09:45;95988.13;;;-0.87;94.38
2000;BME280;1001;48.87406500;9.59633600;2023-01-29T07:12:12;95981.50;;;-0.80;94.54
2000;BME280;1001;48.87406500;9.59633600;2023-01-29T07:14:38;95979.22;;;-0.83;94.03
2000;BME280;1001;48.87406500;9.59633600;2023-01-29T07:17:06;95983.13;;;-0.79;95.31
2000;BME280;1001;48.87406500;9.59633600;2023-01-29T07:19:33;95988.13;;;-0.78;95.53
2000;BME280;1001;48.87406500;9.59633600;2023-01-29T07:21:59;95985.03;;;-0.81;94.70
2000;BME280;1001;48.87406500;9.59633600;2023-01-29T07:24:26;95989.50;;;-0.83;93.73
2000;BME280;1001;48.87406500;9.59633600;2023-01-29T07:26:53;95987.47;;;-0.80;94.04
2000;BME280;1001;48.87406500;9.59633600;2023-01-29T07:29:19;95997.72;;;-0.70;93.20
2000;BME280;1001;48.87406500;9.59633600;2023-01-29T07:31:46;95994.47;;;-0.62;92.79
2000;BME280;1001;48.87406500;9.59633600;2023-01-29T07:34:14;95996.63;;;-0.68;91.99
2000;BME280;1001;48.87406500;9.59633600;2023-01-29T07:36:40;95999.75;;;-0.74;90.96
2000;BME280;1001;48.87406500;9.59633600;2023-01-29T07:39:07;96000.84;;;-0.76;92.54
2000;BME280;1001;48.87406500;9.59633600;2023-01-29T07:41:34;96000.13;;;-0.69;92.26
2000;BME280;1001;48.87406500;9.59633600;2023-01-29T07:44:00;96005.16;;;-0.77;93.73
2000;BME280;1001;48.87406500;9.59633600;2023-01-29T07:46:27;96005.69;;;-0.73;92.23
2000;BME280;1001;48.87406500;9.59633600;2023-01-29T07:48:53;96009.19;;;-0.64;93.38
2000;BME280;1001;48.87406500;9.59633600;2023-01-29T07:51:21;96008.22;;;-0.63;93.15
2000;BME280;1001;48.87406500;9.59633600;2023-01-29T07:53:48;96015.00;;;-0.53;94.11
2000;BME280;1001;48.87406500;9.59633600;2023-01-29T07:56:14;96024.59;;;-0.64;95.06
2000;BME280;1001;48.87406500;9.59633600;2023-01-29T07:58:41;96017.97;;;-0.57;94.62
2000;BME280;1001;48.87406500;9.59633600;2023-01-29T08:01:07;96021.72;;;-0.52;95.12
2000;BME280;1001;48.87406500;9.59633600;2023-01-29T08:03:34;96017.41;;;-0.51;96.29
2000;BME280;1001;48.87406500;9.59633600;2023-01-29T08:06:02;96017.56;;;-0.53;95.98
2000;BME280;1001;48.87406500;9.59633600;2023-01-29T08:08:30;96012.50;;;-0.35;95.65
2000;BME280;1001;48.87406500;9.59633600;2023-01-29T08:10:59;96002.22;;;-0.35;94.50
2000;BME280;1001;48.87406500;9.59633600;2023-01-29T08:13:26;96010.66;;;-0.52;93.44
2000;BME280;1001;48.87406500;9.59633600;2023-01-29T08:15:52;96009.72;;;-0.61;93.79
2000;BME280;1001;48.87406500;9.59633600;2023-01-29T08:18:19;96007.94;;;-0.41;91.89
2000;BME280;1001;48.87406500;9.59633600;2023-01-29T08:20:45;96011.94;;;-0.29;90.34
2000;BME280;1001;48.87406500;9.59633600;2023-01-29T08:23:13;96011.53;;;-0.25;89.77
2000;BME280;1001;48.87406500;9.59633600;2023-01-29T08:25:42;96022.41;;;-0.40;91.06
2000;BME280;1001;48.87406500;9.59633600;2023-01-29T08:28:09;96026.47;;;-0.47;90.09
2000;BME280;1001;48.87406500;9.59633600;2023-01-29T08:30:36;96033.78;;;-0.52;89.56
2000;BME280;1001;48.87406500;9.59633600;2023-01-29T08:33:03;96031.03;;;-0.32;88.85
2000;BME280;1001;48.87406500;9.59633600;2023-01-29T08:35:30;96030.88;;;-0.30;89.42
2000;BME280;1001;48.87406500;9.59633600;2023-01-29T08:37:58;96039.94;;;-0.26;89.18
2000;BME280;1001;48.87406500;9.59633600;2023-01-29T08:40:25;96036.69;;;-0.28;89.22
2000;BME280;1001;48.87406500;9.59633600;2023-01-29T08:42:56;96036.97;;;-0.31;88.12
2000;BME280;1001;48.87406500;9.59633600;2023-01-29T08:45:23;96037.75;;;-0.31;87.69
2000;BME280;1001;48.87406500;9.59633600;2023-01-29T08:47:50;96045.97;;;-0.08;88.50
2000;BME280;1001;48.87406500;9.59633600;2023-01-29T08:50:17;96047.56;;;-0.07;87.95
2000;BME280;1001;48.87406500;9.59633600;2023-01-29T08:52:44;96055.28;;;-0.07;87.01
2000;BME280;1001;48.87406500;9.59633600;2023-01-29T08:55:11;96062.28;;;0.00;87.50
2000;BME280;1001;48.87406500;9.59633600;2023-01-29T08:57:38;96052.38;;;-0.22;88.69
2000;BME280;1001;48.87406500;9.59633600;2023-01-29T09:00:08;96047.75;;;-0.18;88.33
2000;BME280;1001;48.87406500;9.59633600;2023-01-29T09:02:35;96051.75;;;0.04;86.97
2000;BME280;1001;48.87406500;9.59633600;2023-01-29T09:05:01;96053.28;;;0.24;86.88
2000;BME280;1001;48.87406500;9.59633600;2023-01-29T09:07:28;96057.44;;;0.34;86.30
2000;BME280;1001;48.87406500;9.59633600;2023-01-29T09:09:55;96054.34;;;0.58;85.82
2000;BME280;1001;48.87406500;9.59633600;2023-01-29T09:12:21;96060.75;;;0.72;85.12
2000;BME280;1001;48.87406500;9.59633600;2023-01-29T09:14:48;96059.84;;;0.63;84.19
2000;BME280;1001;48.87406500;9.59633600;2023-01-29T09:17:16;96064.72;;;0.39;86.41
2000;BME280;1001;48.87406500;9.59633600;2023-01-29T09:19:42;96059.84;;;0.36;84.51
2000;BME280;1001;48.87406500;9.59633600;2023-01-29T09:22:09;96063.47;;;0.43;86.23
2000;BME280;1001;48.87406500;9.59633600;2023-01-29T09:24:35;96055.59;;;0.54;83.39
2000;BME280;1001;48.87406500;9.59633600;2023-01-29T09:27:02;96062.38;;;0.45;81.64
2000;BME280;1001;48.87406500;9.59633600;2023-01-29T09:29:29;96070.28;;;0.34;80.70
2000;BME280;1001;48.87406500;9.59633600;2023-01-29T09:31:55;96074.03;;;0.67;83.84
2000;BME280;1001;48.87406500;9.59633600;2023-01-29T09:34:23;96079.84;;;0.69;84.57
2000;BME280;1001;48.87406500;9.59633600;2023-01-29T09:36:50;96067.66;;;0.71;84.63
2000;BME280;1001;48.87406500;9.59633600;2023-01-29T09:39:17;96075.03;;;0.66;84.10
2000;BME280;1001;48.87406500;9.59633600;2023-01-29T09:41:50;96075.06;;;0.56;83.69
2000;BME280;1001;48.87406500;9.59633600;2023-01-29T09:44:24;96064.47;;;0.59;82.80
2000;BME280;1001;48.87406500;9.59633600;2023-01-29T09:46:54;96059.81;;;0.73;82.31
2000;BME280;1001;48.87406500;9.59633600;2023-01-29T09:49:25;96059.31;;;0.87;82.08
2000;BME280;1001;48.87406500;9.59633600;2023-01-29T09:51:57;96048.72;;;1.07;82.59
2000;BME280;1001;48.87406500;9.59633600;2023-01-29T09:54:29;96056.00;;;0.94;82.76
2000;BME280;1001;48.87406500;9.59633600;2023-01-29T09:56:59;96048.63;;;0.82;80.80
2000;BME280;1001;48.87406500;9.59633600;2023-01-29T09:59:28;96035.97;;;0.88;81.40
2000;BME280;1001;48.87406500;9.59633600;2023-01-29T10:02:04;96029.50;;;0.84;84.07
2000;BME280;1001;48.87406500;9.59633600;2023-01-29T10:05:00;96015.03;;;1.01;82.53
2000;BME280;1001;48.87406500;9.59633600;2023-01-29T10:07:42;96012.59;;;0.82;82.99
2000;BME280;1001;48.87406500;9.59633600;2023-01-29T10:10:24;96002.31;;;0.99;83.97
2000;BME280;1001;48.87406500;9.59633600;2023-01-29T10:13:02;96008.81;;;1.29;82.39
2000;BME280;1001;48.87406500;9.59633600;2023-01-29T10:15:56;95991.81;;;1.62;81.88
2000;BME280;1001;48.87406500;9.59633600;2023-01-29T10:18:58;95992.88;;;1.51;81.57
2000;BME280;1001;48.87406500;9.59633600;2023-01-29T10:21:37;95995.13;;;1.54;81.53
2000;BME280;1001;48.87406500;9.59633600;2023-01-29T10:24:17;96002.13;;;1.62;82.84
2000;BME280;1001;48.87406500;9.59633600;2023-01-29T10:26:47;96007.53;;;1.51;81.82
2000;BME280;1001;48.87406500;9.59633600;2023-01-29T10:29:17;96006.63;;;1.16;83.67
2000;BME280;1001;48.87406500;9.59633600;2023-01-29T10:31:45;96006.81;;;1.66;82.40
2000;BME280;1001;48.87406500;9.59633600;2023-01-29T10:34:20;96015.25;;;1.51;81.31
2000;BME280;1001;48.87406500;9.59633600;2023-01-29T10:36:50;96035.88;;;1.33;82.52
2000;BME280;1001;48.87406500;9.59633600;2023-01-29T10:39:18;96027.16;;;1.52;82.31
2000;BME280;1001;48.87406500;9.59633600;2023-01-29T10:42:00;96007.72;;;1.57;80.35
2000;BME280;1001;48.87406500;9.59633600;2023-01-29T10:44:37;96006.25;;;1.29;79.68
2000;BME280;1001;48.87406500;9.59633600;2023-01-29T10:47:20;96004.84;;;1.17;82.06
2000;BME280;1001;48.87406500;9.59633600;2023-01-29T10:53:05;95995.69;;;0.97;82.85
2000;BME280;1001;48.87406500;9.59633600;2023-01-29T10:55:45;95997.09;;;1.09;83.38
2000;BME280;1001;48.87406500;9.59633600;2023-01-29T10:58:21;96002.56;;;1.31;83.53
2000;BME280;1001;48.87406500;9.59633600;2023-01-29T11:00:52;96006.16;;;1.38;83.46
2000;BME280;1001;48.87406500;9.59633600;2023-01-29T11:03:22;96007.28;;;1.18;83.94
2000;BME280;1001;48.87406500;9.59633600;2023-01-29T11:05:54;96009.91;;;1.44;82.55
2000;BME280;1001;48.87406500;9.59633600;2023-01-29T11:08:25;95999.63;;;1.52;80.86
2000;BME280;1001;48.87406500;9.59633600;2023-01-29T11:11:00;95986.28;;;1.31;81.77
2000;BME280;1001;48.87406500;9.59633600;2023-01-29T11:13:33;95992.41;;;1.30;82.11
2000;BME280;1001;48.87406500;9.59633600;2023-01-29T11:16:03;95995.00;;;0.95;81.88
2000;BME280;1001;48.87406500;9.59633600;2023-01-29T11:18:48;95993.13;;;1.40;82.27
2000;BME280;1001;48.87406500;9.59633600;2023-01-29T11:21:17;95983.88;;;1.12;82.00
2000;BME280;1001;48.87406500;9.59633600;2023-01-29T11:23:45;95993.59;;;1.18;83.82
2000;BME280;1001;48.87406500;9.59633600;2023-01-29T11:26:17;95993.72;;;1.60;81.21
2000;BME280;1001;48.87406500;9.59633600;2023-01-29T11:28:49;96000.06;;;1.40;81.39
2000;BME280;1001;48.87406500;9.59633600;2023-01-29T11:31:23;95980.09;;;1.67;81.31
2000;BME280;1001;48.87406500;9.59633600;2023-01-29T11:33:53;95980.53;;;1.96;80.47
2000;BME280;1001;48.87406500;9.59633600;2023-01-29T11:36:31;95969.91;;;1.91;78.59
2000;BME280;1001;48.87406500;9.59633600;2023-01-29T11:39:18;95972.03;;;1.96;79.22
2000;BME280;1001;48.87406500;9.59633600;2023-01-29T11:41:52;95959.75;;;1.56;78.62
2000;BME280;1001;48.87406500;9.59633600;2023-01-29T11:44:20;95961.16;;;1.25;80.84
2000;BME280;1001;48.87406500;9.59633600;2023-01-29T11:46:48;95966.31;;;1.51;79.76
2000;BME280;1001;48.87406500;9.59633600;2023-01-29T11:49:23;95963.56;;;1.26;79.95
2000;BME280;1001;48.87406500;9.59633600;2023-01-29T11:51:54;95957.84;;;1.15;80.48
2000;BME280;1001;48.87406500;9.59633600;2023-01-29T11:54:27;95957.91;;;1.49;82.26
2000;BME280;1001;48.87406500;9.59633600;2023-01-29T11:56:55;95964.81;;;1.22;82.14
2000;BME280;1001;48.87406500;9.59633600;2023-01-29T11:59:37;95958.84;;;1.40;81.64
2000;BME280;1001;48.87406500;9.59633600;2023-01-29T12:02:17;95952.06;;;1.21;83.45
2000;BME280;1001;48.87406500;9.59633600;2023-01-29T12:04:46;95940.44;;;1.34;82.96